Time;durP1;ratioP1;P1;durP2;ratioP2;P2;SDS_P1;SDS_P2;PMS_P1;PMS_P2;Temp;Humidity;BMP_temperature;BMP_pressure;BME280_temperature;BME280_humidity;BME280_pressure;Samples;Min_cycle;Max_cycle;Signal;HPM_P1;HPM_P2
2023/12/14 00:00:12;;;;;;;2.07;2.07;;;;;;;;;;6027574;29;20316;-70
2023/12/14 00:03:16;;;;;;;2.43;2.30;;;;;;;;;;6022086;29;20297;-71
2023/12/14 00:06:19;;;;;;;2.43;2.30;;;;;;;;;;6022590;29;20313;-71
2023/12/14 00:09:23;;;;;;;2.30;2.10;;;;;;;;;;6035450;29;20625;-70
2023/12/14 00:12:29;;;;;;;1.83;1.83;;;;;;;;;;6014719;29;20294;-70
2023/12/14 00:15:33;;;;;;;2.20;2.10;;;;;;;;;;6005378;29;20305;-70
2023/12/14 00:18:37;;;;;;;1.90;1.90;;;;;;;;;;5999153;29;20301;-71
2023/12/14 00:21:41;;;;;;;2.30;2.10;;;;;;;;;;6000472;29;20325;-71
2023/12/14 00:24:45;;;;;;;2.13;2.13;;;;;;;;;;5998168;29;20299;-70
2023/12/14 00:27:50;;;;;;;2.17;2.17;;;;;;;;;;5999375;29;20504;-70
2023/12/14 00:30:54;;;;;;;2.33;2.20;;;;;;;;;;5996981;29;20312;-70
2023/12/14 00:33:58;;;;;;;1.83;1.83;;;;;;;;;;6009744;29;20310;-71
2023/12/14 00:37:02;;;;;;;2.13;2.13;;;;;;;;;;5999306;29;20305;-70
2023/12/14 00:40:07;;;;;;;2.30;2.10;;;;;;;;;;5999154;29;20308;-70
2023/12/14 00:43:12;;;;;;;2.10;2.10;;;;;;;;;;5999198;29;20298;-70
2023/12/14 00:46:16;;;;;;;2.40;2.30;;;;;;;;;;5999626;29;20313;-71
2023/12/14 00:49:20;;;;;;;2.23;2.23;;;;;;;;;;5999166;29;20300;-72
2023/12/14 00:52:24;;;;;;;2.23;2.13;;;;;;;;;;5998066;29;20308;-70
2023/12/14 00:55:28;;;;;;;2.10;2.10;;;;;;;;;;5997829;29;20310;-71
2023/12/14 00:58:34;;;;;;;2.43;2.10;;;;;;;;;;5998777;29;20590;-70
2023/12/14 01:01:38;;;;;;;2.10;2.10;;;;;;;;;;5989398;29;20469;-69
2023/12/14 01:04:41;;;;;;;2.03;2.03;;;;;;;;;;5998320;29;20361;-71
2023/12/14 01:07:45;;;;;;;2.20;2.20;;;;;;;;;;5996109;29;20499;-70
2023/12/14 01:10:49;;;;;;;2.43;2.43;;;;;;;;;;6011238;29;20615;-71
2023/12/14 01:13:55;;;;;;;2.07;2.07;;;;;;;;;;6016774;29;20290;-70
2023/12/14 01:16:59;;;;;;;2.20;2.20;;;;;;;;;;6021071;29;20300;-70
2023/12/14 01:20:06;;;;;;;2.40;2.40;;;;;;;;;;6019313;29;20306;-70
2023/12/14 01:23:10;;;;;;;2.20;2.20;;;;;;;;;;6010189;29;20606;-70
2023/12/14 01:26:14;;;;;;;2.30;2.30;;;;;;;;;;6005892;29;20319;-70
2023/12/14 01:29:19;;;;;;;2.50;2.30;;;;;;;;;;5998366;29;20307;-72
2023/12/14 01:32:23;;;;;;;2.20;2.20;;;;;;;;;;6006071;29;20441;-71
2023/12/14 01:35:28;;;;;;;2.00;2.00;;;;;;;;;;6024799;29;20305;-71
2023/12/14 01:38:32;;;;;;;2.10;2.10;;;;;;;;;;6019156;29;20295;-70
2023/12/14 01:41:36;;;;;;;2.20;2.20;;;;;;;;;;6020896;29;20300;-71
2023/12/14 01:44:41;;;;;;;2.70;2.50;;;;;;;;;;6025896;29;20456;-71
2023/12/14 01:47:45;;;;;;;2.10;2.10;;;;;;;;;;6024452;29;20292;-70
2023/12/14 01:50:49;;;;;;;2.47;2.47;;;;;;;;;;6021726;29;20303;-71
2023/12/14 01:53:53;;;;;;;2.43;2.40;;;;;;;;;;6020632;29;20296;-71
2023/12/14 01:56:57;;;;;;;2.20;2.20;;;;;;;;;;6020262;29;20312;-71
2023/12/14 02:00:02;;;;;;;2.20;2.20;;;;;;;;;;6018546;29;20388;-71
2023/12/14 02:03:07;;;;;;;2.40;2.30;;;;;;;;;;6019434;29;20245;-70
2023/12/14 02:06:11;;;;;;;2.40;2.40;;;;;;;;;;6020956;29;20452;-70
2023/12/14 02:09:15;;;;;;;2.33;2.33;;;;;;;;;;6019995;29;20304;-71
2023/12/14 02:12:19;;;;;;;3.07;2.17;;;;;;;;;;6018799;29;20308;-70
2023/12/14 02:15:24;;;;;;;2.27;2.27;;;;;;;;;;5996549;29;20429;-71
2023/12/14 02:18:28;;;;;;;2.43;2.43;;;;;;;;;;6004235;29;20322;-70
2023/12/14 02:21:32;;;;;;;2.33;2.30;;;;;;;;;;5998086;29;20307;-71
2023/12/14 02:24:37;;;;;;;2.27;2.27;;;;;;;;;;6002999;29;20509;-71
2023/12/14 02:27:41;;;;;;;2.53;2.43;;;;;;;;;;5997220;29;20306;-71
2023/12/14 02:30:45;;;;;;;2.30;2.30;;;;;;;;;;5993681;29;20300;-70
2023/12/14 02:33:49;;;;;;;2.33;2.30;;;;;;;;;;6019073;29;20344;-70
2023/12/14 02:36:53;;;;;;;2.10;2.10;;;;;;;;;;6023247;29;20304;-70
2023/12/14 02:39:59;;;;;;;2.10;2.10;;;;;;;;;;6024127;29;20324;-70
2023/12/14 02:43:03;;;;;;;2.10;2.00;;;;;;;;;;6023533;29;20307;-70
2023/12/14 02:46:07;;;;;;;2.00;2.00;;;;;;;;;;6023585;29;20471;-70
2023/12/14 02:49:11;;;;;;;2.00;2.00;;;;;;;;;;6024118;29;20324;-70
2023/12/14 02:52:15;;;;;;;2.10;2.10;;;;;;;;;;6024212;29;20520;-71
2023/12/14 02:55:20;;;;;;;2.00;2.00;;;;;;;;;;6024273;29;20298;-70
2023/12/14 02:58:24;;;;;;;1.93;1.93;;;;;;;;;;6023683;29;20497;-70
2023/12/14 03:01:28;;;;;;;2.00;2.00;;;;;;;;;;6038509;29;20299;-71
2023/12/14 03:04:32;;;;;;;2.20;2.20;;;;;;;;;;6023178;29;20300;-70
2023/12/14 03:07:36;;;;;;;2.17;2.17;;;;;;;;;;6022734;29;20304;-70
2023/12/14 03:10:41;;;;;;;2.10;2.10;;;;;;;;;;6024492;29;20373;-71
2023/12/14 03:13:45;;;;;;;2.00;2.00;;;;;;;;;;6004697;29;20599;-71
2023/12/14 03:16:49;;;;;;;2.30;2.20;;;;;;;;;;6007600;29;20321;-71
2023/12/14 03:19:53;;;;;;;2.40;2.30;;;;;;;;;;6000417;29;20296;-71
2023/12/14 03:22:57;;;;;;;2.30;2.30;;;;;;;;;;6000294;29;20308;-72
2023/12/14 03:26:02;;;;;;;4.10;2.17;;;;;;;;;;6000240;29;20300;-71
2023/12/14 03:29:07;;;;;;;2.00;2.00;;;;;;;;;;6000987;29;20309;-71
2023/12/14 03:32:11;;;;;;;2.27;2.17;;;;;;;;;;6007349;29;20328;-71
2023/12/14 03:35:15;;;;;;;1.90;1.90;;;;;;;;;;6023311;29;20289;-70
2023/12/14 03:38:20;;;;;;;2.43;2.33;;;;;;;;;;6022171;29;20303;-71
2023/12/14 03:41:25;;;;;;;2.60;2.50;;;;;;;;;;6018178;29;20483;-70
2023/12/14 03:44:29;;;;;;;2.30;2.20;;;;;;;;;;6019313;29;20569;-71
2023/12/14 03:47:32;;;;;;;2.13;2.13;;;;;;;;;;6023078;29;20304;-70
2023/12/14 03:50:36;;;;;;;2.77;2.67;;;;;;;;;;6022723;29;20299;-71
2023/12/14 03:53:41;;;;;;;4.00;2.00;;;;;;;;;;6020371;29;20299;-71
2023/12/14 03:56:46;;;;;;;2.67;2.57;;;;;;;;;;6011446;29;20304;-70
2023/12/14 03:59:50;;;;;;;2.50;2.50;;;;;;;;;;6020874;29;20608;-71
2023/12/14 04:02:54;;;;;;;2.13;2.10;;;;;;;;;;6014810;29;20291;-72
2023/12/14 04:05:58;;;;;;;2.17;2.07;;;;;;;;;;6016598;29;20593;-70
2023/12/14 04:09:02;;;;;;;2.10;2.10;;;;;;;;;;5996316;29;20317;-70
2023/12/14 04:12:07;;;;;;;2.37;2.37;;;;;;;;;;6015834;29;20602;-70
2023/12/14 04:15:11;;;;;;;2.37;2.33;;;;;;;;;;6021612;29;20356;-71
2023/12/14 04:18:15;;;;;;;2.60;2.50;;;;;;;;;;6021827;29;20620;-70
2023/12/14 04:21:19;;;;;;;2.60;2.60;;;;;;;;;;5996507;29;20301;-70
2023/12/14 04:24:23;;;;;;;2.30;2.23;;;;;;;;;;6003856;29;20300;-70
2023/12/14 04:27:29;;;;;;;2.40;2.30;;;;;;;;;;5999857;29;20336;-71
2023/12/14 04:30:34;;;;;;;2.60;2.50;;;;;;;;;;5999273;29;20269;-70
2023/12/14 04:33:37;;;;;;;2.77;2.13;;;;;;;;;;6016633;29;20301;-70
2023/12/14 04:36:41;;;;;;;2.23;2.23;;;;;;;;;;6010839;29;20298;-71
2023/12/14 04:39:45;;;;;;;2.30;2.23;;;;;;;;;;5999055;29;20296;-70
2023/12/14 04:42:50;;;;;;;2.50;2.40;;;;;;;;;;5996999;29;20312;-71
2023/12/14 04:45:54;;;;;;;2.30;2.30;;;;;;;;;;5999917;29;20305;-70
2023/12/14 04:48:58;;;;;;;2.70;2.60;;;;;;;;;;5998283;29;20300;-71
2023/12/14 04:52:02;;;;;;;2.50;2.40;;;;;;;;;;5999822;29;20320;-71
2023/12/14 04:55:08;;;;;;;2.90;2.43;;;;;;;;;;5997251;29;20293;-71
2023/12/14 04:58:13;;;;;;;2.50;2.40;;;;;;;;;;5998029;29;20308;-70
2023/12/14 05:01:17;;;;;;;2.40;2.30;;;;;;;;;;5999211;29;20301;-71
2023/12/14 05:04:21;;;;;;;2.23;2.13;;;;;;;;;;5998702;29;20297;-71
2023/12/14 05:07:25;;;;;;;2.67;2.50;;;;;;;;;;5998997;29;20310;-71
2023/12/14 05:10:29;;;;;;;2.13;2.13;;;;;;;;;;6006082;29;20305;-70
2023/12/14 05:13:34;;;;;;;2.13;2.13;;;;;;;;;;6021235;29;20297;-70
2023/12/14 05:16:38;;;;;;;1.83;1.83;;;;;;;;;;6021251;29;20605;-70
2023/12/14 05:19:43;;;;;;;1.97;1.97;;;;;;;;;;6020658;29;20306;-70
2023/12/14 05:22:46;;;;;;;2.30;2.30;;;;;;;;;;6020803;29;20296;-70
2023/12/14 05:25:50;;;;;;;2.20;2.00;;;;;;;;;;6021223;29;20293;-70
2023/12/14 05:28:56;;;;;;;2.07;2.00;;;;;;;;;;6020270;29;20305;-71
2023/12/14 05:32:00;;;;;;;2.00;2.00;;;;;;;;;;6019334;29;20310;-71
2023/12/14 05:35:04;;;;;;;2.27;2.27;;;;;;;;;;6020596;29;20302;-71
2023/12/14 05:38:08;;;;;;;2.37;2.37;;;;;;;;;;6020619;29;20304;-71
2023/12/14 05:41:12;;;;;;;2.47;2.27;;;;;;;;;;6020800;29;20310;-70
2023/12/14 05:44:17;;;;;;;2.40;2.30;;;;;;;;;;6020156;29;20358;-70
2023/12/14 05:47:22;;;;;;;2.73;2.63;;;;;;;;;;6021174;29;20298;-71
2023/12/14 05:50:26;;;;;;;3.00;2.80;;;;;;;;;;6020668;29;20302;-71
2023/12/14 05:53:30;;;;;;;2.50;2.50;;;;;;;;;;6020965;29;20321;-70
2023/12/14 05:56:34;;;;;;;2.60;2.50;;;;;;;;;;6020773;29;20297;-70
2023/12/14 05:59:42;;;;;;;2.60;2.50;;;;;;;;;;6020160;29;20292;-70
2023/12/14 06:02:46;;;;;;;2.53;2.33;;;;;;;;;;6020375;29;20301;-71
2023/12/14 06:05:50;;;;;;;2.60;2.60;;;;;;;;;;6020881;29;20569;-72
2023/12/14 06:08:54;;;;;;;2.53;2.47;;;;;;;;;;6023428;29;20391;-71
2023/12/14 06:11:58;;;;;;;2.67;2.67;;;;;;;;;;6005893;29;20411;-70
2023/12/14 06:15:04;;;;;;;2.40;2.30;;;;;;;;;;6001915;29;20309;-71
2023/12/14 06:18:08;;;;;;;2.90;2.53;;;;;;;;;;6001666;29;20301;-71
2023/12/14 06:21:12;;;;;;;2.40;2.40;;;;;;;;;;6002263;29;20300;-70
2023/12/14 06:24:16;;;;;;;3.20;2.90;;;;;;;;;;6001553;29;20614;-70
2023/12/14 06:27:23;;;;;;;2.90;2.73;;;;;;;;;;6001981;29;20304;-70
2023/12/14 06:30:28;;;;;;;2.87;2.67;;;;;;;;;;6001574;29;20306;-70
2023/12/14 06:33:32;;;;;;;2.50;2.40;;;;;;;;;;6018724;29;20302;-70
2023/12/14 06:36:36;;;;;;;2.53;2.53;;;;;;;;;;6040594;29;20301;-71
2023/12/14 06:39:41;;;;;;;2.30;2.30;;;;;;;;;;6041006;29;20311;-70
2023/12/14 06:42:45;;;;;;;2.73;2.63;;;;;;;;;;6001838;29;20336;-72
2023/12/14 06:45:50;;;;;;;3.37;3.07;;;;;;;;;;6001528;29;20306;-70
2023/12/14 06:48:55;;;;;;;2.90;2.80;;;;;;;;;;6000987;29;20305;-72
2023/12/14 06:51:59;;;;;;;2.80;2.70;;;;;;;;;;6001937;29;20311;-69
2023/12/14 06:55:03;;;;;;;2.63;2.50;;;;;;;;;;6000360;29;20309;-71
2023/12/14 06:58:11;;;;;;;2.80;2.60;;;;;;;;;;6001271;29;20592;-71
2023/12/14 07:01:17;;;;;;;2.77;2.67;;;;;;;;;;6001229;29;20313;-74
2023/12/14 07:04:22;;;;;;;3.00;2.80;;;;;;;;;;6000748;29;20313;-72
2023/12/14 07:07:25;;;;;;;2.70;2.60;;;;;;;;;;6023966;29;20297;-69
2023/12/14 07:10:29;;;;;;;2.50;2.50;;;;;;;;;;6022765;29;20331;-72
2023/12/14 07:13:35;;;;;;;2.70;2.60;;;;;;;;;;6023621;29;20473;-71
2023/12/14 07:16:41;;;;;;;3.07;2.97;;;;;;;;;;6024044;29;20305;-71
2023/12/14 07:19:45;;;;;;;3.10;2.90;;;;;;;;;;6023120;29;20304;-70
2023/12/14 07:22:49;;;;;;;2.23;2.20;;;;;;;;;;6022973;29;20381;-71
2023/12/14 07:25:52;;;;;;;2.37;2.30;;;;;;;;;;6023318;29;20304;-72
2023/12/14 07:28:56;;;;;;;2.80;2.70;;;;;;;;;;6022571;29;20299;-71
2023/12/14 07:32:02;;;;;;;2.70;2.60;;;;;;;;;;6037211;29;20308;-71
2023/12/14 07:35:06;;;;;;;2.60;2.50;;;;;;;;;;6037128;29;20309;-72
2023/12/14 07:38:11;;;;;;;2.83;2.73;;;;;;;;;;6021721;29;20475;-71
2023/12/14 07:41:15;;;;;;;2.67;2.57;;;;;;;;;;6022898;29;20297;-71
2023/12/14 07:44:20;;;;;;;2.67;2.57;;;;;;;;;;6022774;29;20354;-70
2023/12/14 07:47:25;;;;;;;2.70;2.60;;;;;;;;;;6022800;29;20473;-70
2023/12/14 07:50:29;;;;;;;2.90;2.80;;;;;;;;;;6022481;29;20330;-72
2023/12/14 07:53:33;;;;;;;2.47;2.37;;;;;;;;;;6022686;29;20306;-71
2023/12/14 07:56:37;;;;;;;2.40;2.30;;;;;;;;;;6036727;29;20436;-70
2023/12/14 07:59:41;;;;;;;2.90;2.70;;;;;;;;;;6022257;29;20296;-71
2023/12/14 08:02:46;;;;;;;2.30;2.30;;;;;;;;;;6022056;29;20297;-71
2023/12/14 08:05:51;;;;;;;3.43;2.53;;;;;;;;;;6022602;29;20306;-70
2023/12/14 08:08:57;;;;;;;3.20;2.90;;;;;;;;;;6022078;29;20302;-71
2023/12/14 08:12:01;;;;;;;2.90;2.70;;;;;;;;;;6003696;29;20306;-71
2023/12/14 08:15:07;;;;;;;2.83;2.70;;;;;;;;;;5999502;29;20313;-71
2023/12/14 08:18:13;;;;;;;2.97;2.80;;;;;;;;;;5999400;29;20297;-72
2023/12/14 08:21:17;;;;;;;2.70;2.60;;;;;;;;;;5999699;29;20313;-70
2023/12/14 08:24:21;;;;;;;2.90;2.80;;;;;;;;;;5999502;29;20300;-71
2023/12/14 08:27:25;;;;;;;2.97;2.87;;;;;;;;;;6009244;29;20315;-70
2023/12/14 08:30:29;;;;;;;2.93;2.83;;;;;;;;;;5998836;29;20309;-71
2023/12/14 08:33:34;;;;;;;2.77;2.67;;;;;;;;;;6006460;29;20305;-70
2023/12/14 08:36:38;;;;;;;2.40;2.30;;;;;;;;;;6021849;29;20306;-72
2023/12/14 08:39:42;;;;;;;2.80;2.70;;;;;;;;;;6021306;29;20310;-72
2023/12/14 08:42:48;;;;;;;2.57;2.57;;;;;;;;;;6021012;29;20503;-71
2023/12/14 08:45:52;;;;;;;2.80;2.60;;;;;;;;;;6021382;29;20321;-70
2023/12/14 08:48:57;;;;;;;2.67;2.47;;;;;;;;;;6020935;29;20297;-70
2023/12/14 08:52:01;;;;;;;2.93;2.73;;;;;;;;;;6021252;29;20324;-72
2023/12/14 08:55:06;;;;;;;2.87;2.77;;;;;;;;;;6021338;29;20301;-72
2023/12/14 08:58:10;;;;;;;2.50;2.50;;;;;;;;;;6021099;29;20306;-71
2023/12/14 09:01:20;;;;;;;3.00;2.80;;;;;;;;;;6021213;29;20313;-70
2023/12/14 09:04:26;;;;;;;2.60;2.50;;;;;;;;;;6021041;29;20300;-70
2023/12/14 09:07:30;;;;;;;3.27;3.07;;;;;;;;;;6020765;29;20309;-70
2023/12/14 09:10:34;;;;;;;3.27;2.90;;;;;;;;;;6013513;29;20304;-70
2023/12/14 09:13:37;;;;;;;2.80;2.70;;;;;;;;;;5998391;29;20288;-71
2023/12/14 09:16:41;;;;;;;2.90;2.80;;;;;;;;;;5998867;29;20305;-71
2023/12/14 09:19:46;;;;;;;3.70;3.00;;;;;;;;;;5998135;29;20304;-70
2023/12/14 09:22:50;;;;;;;2.83;2.73;;;;;;;;;;5998018;29;20258;-71
2023/12/14 09:25:55;;;;;;;2.90;2.80;;;;;;;;;;5998206;29;20405;-72
2023/12/14 09:28:59;;;;;;;2.97;2.63;;;;;;;;;;5997817;29;20329;-71
2023/12/14 09:32:04;;;;;;;3.50;3.20;;;;;;;;;;6004751;29;20303;-71
2023/12/14 09:35:09;;;;;;;3.20;3.10;;;;;;;;;;6020743;29;20328;-70
2023/12/14 09:38:17;;;;;;;2.67;2.67;;;;;;;;;;6020487;29;20301;-71
2023/12/14 09:41:21;;;;;;;3.30;3.17;;;;;;;;;;6022115;29;20316;-71
2023/12/14 09:44:25;;;;;;;3.63;3.47;;;;;;;;;;6025196;29;20327;-71
2023/12/14 09:47:29;;;;;;;3.00;2.80;;;;;;;;;;6025493;29;20305;-71
2023/12/14 09:50:35;;;;;;;3.27;3.07;;;;;;;;;;6024872;29;20319;-72
2023/12/14 09:53:39;;;;;;;3.10;3.00;;;;;;;;;;6002556;29;20305;-71
2023/12/14 09:56:49;;;;;;;3.20;3.00;;;;;;;;;;6003097;29;20302;-71
2023/12/14 09:59:54;;;;;;;3.33;3.13;;;;;;;;;;6002226;29;20305;-72
2023/12/14 10:02:58;;;;;;;3.57;3.30;;;;;;;;;;6002308;29;20323;-71
2023/12/14 10:06:04;;;;;;;3.13;2.93;;;;;;;;;;6016906;29;20464;-71
2023/12/14 10:09:09;;;;;;;4.87;3.40;;;;;;;;;;5979710;29;20306;-71
2023/12/14 10:12:13;;;;;;;3.40;3.10;;;;;;;;;;6000122;29;20300;-72
2023/12/14 10:15:17;;;;;;;3.30;3.10;;;;;;;;;;6002224;29;20306;-71
2023/12/14 10:18:24;;;;;;;3.20;3.00;;;;;;;;;;6001463;29;20309;-71
2023/12/14 10:21:30;;;;;;;3.63;3.30;;;;;;;;;;6001545;29;20296;-72
2023/12/14 10:24:34;;;;;;;3.00;2.90;;;;;;;;;;6001709;29;20628;-71
2023/12/14 10:27:39;;;;;;;3.27;3.07;;;;;;;;;;6001574;29;20306;-71
2023/12/14 10:30:43;;;;;;;2.63;2.53;;;;;;;;;;5979496;29;20318;-71
2023/12/14 10:33:47;;;;;;;2.97;2.77;;;;;;;;;;5979133;29;20297;-71
2023/12/14 10:36:53;;;;;;;3.47;3.37;;;;;;;;;;5979448;29;20301;-71
2023/12/14 10:39:57;;;;;;;3.63;3.43;;;;;;;;;;5979051;29;20301;-70
2023/12/14 10:43:01;;;;;;;2.93;2.83;;;;;;;;;;5992645;29;20297;-71
2023/12/14 10:46:07;;;;;;;2.90;2.80;;;;;;;;;;5980913;29;20310;-71
2023/12/14 10:49:11;;;;;;;3.00;2.90;;;;;;;;;;6001479;29;20300;-70
2023/12/14 10:52:17;;;;;;;2.40;2.30;;;;;;;;;;6001656;29;20297;-71
2023/12/14 10:55:24;;;;;;;4.87;2.70;;;;;;;;;;6000842;29;20302;-71
2023/12/14 10:58:28;;;;;;;2.83;2.70;;;;;;;;;;6000700;29;20311;-72
2023/12/14 11:01:34;;;;;;;4.00;2.80;;;;;;;;;;6000081;29;20461;-71
2023/12/14 11:04:58;;;;;;;2.97;2.77;;;;;;;;;;6000795;29;20304;-71
2023/12/14 11:08:09;;;;;;;2.63;2.63;;;;;;;;;;6014968;29;20591;-72
2023/12/14 11:11:19;;;;;;;3.00;2.80;;;;;;;;;;6011085;29;20311;-72
2023/12/14 11:14:24;;;;;;;3.27;3.07;;;;;;;;;;6000539;29;20302;-70
2023/12/14 11:17:31;;;;;;;3.77;3.47;;;;;;;;;;6001182;29;20279;-70
2023/12/14 11:20:48;;;;;;;3.50;3.30;;;;;;;;;;6014410;29;20297;-73
2023/12/14 11:23:54;;;;;;;2.83;2.70;;;;;;;;;;6000569;29;20293;-71
2023/12/14 11:26:59;;;;;;;2.90;2.80;;;;;;;;;;6015045;29;20499;-71
2023/12/14 11:30:04;;;;;;;4.10;3.27;;;;;;;;;;6000742;29;20383;-72
2023/12/14 11:33:07;;;;;;;2.97;2.87;;;;;;;;;;6021132;29;20292;-71
2023/12/14 11:36:13;;;;;;;3.00;2.77;;;;;;;;;;6000584;29;20301;-71
2023/12/14 11:39:21;;;;;;;4.30;3.37;;;;;;;;;;6000375;29;20326;-72
2023/12/14 11:42:25;;;;;;;3.37;3.17;;;;;;;;;;6001046;29;20302;-71
2023/12/14 11:45:29;;;;;;;3.10;2.87;;;;;;;;;;6000082;29;20309;-70
2023/12/14 11:48:33;;;;;;;3.10;2.90;;;;;;;;;;5999904;29;20484;-71
2023/12/14 11:51:38;;;;;;;3.60;3.17;;;;;;;;;;6000491;29;20621;-71
2023/12/14 11:54:43;;;;;;;3.30;3.10;;;;;;;;;;6000028;29;20476;-71
2023/12/14 11:57:47;;;;;;;3.07;2.83;;;;;;;;;;5999992;29;20310;-71
2023/12/14 12:00:51;;;;;;;2.87;2.77;;;;;;;;;;6000482;29;20378;-71
2023/12/14 12:03:55;;;;;;;2.90;2.73;;;;;;;;;;5992295;29;20300;-70
2023/12/14 12:07:01;;;;;;;3.33;3.03;;;;;;;;;;5999413;29;20325;-71
2023/12/14 12:10:08;;;;;;;3.10;3.00;;;;;;;;;;6003977;29;20320;-72
2023/12/14 12:13:14;;;;;;;3.07;2.97;;;;;;;;;;6022284;29;20291;-71
2023/12/14 12:16:17;;;;;;;2.50;2.47;;;;;;;;;;6022923;29;20341;-70
2023/12/14 12:19:21;;;;;;;2.90;2.80;;;;;;;;;;6021860;29;20311;-70
2023/12/14 12:22:25;;;;;;;4.17;3.07;;;;;;;;;;6022359;29;20308;-71
2023/12/14 12:25:31;;;;;;;3.90;2.60;;;;;;;;;;6021982;29;20303;-71
2023/12/14 12:28:35;;;;;;;3.07;2.87;;;;;;;;;;6021452;29;20306;-71
2023/12/14 12:31:39;;;;;;;2.83;2.70;;;;;;;;;;6022074;29;20293;-71
2023/12/14 12:34:43;;;;;;;3.13;2.93;;;;;;;;;;6020781;29;20301;-72
2023/12/14 12:37:53;;;;;;;2.77;2.57;;;;;;;;;;6021306;29;20489;-71
2023/12/14 12:41:00;;;;;;;2.77;2.67;;;;;;;;;;6021340;29;20327;-72
2023/12/14 12:44:07;;;;;;;2.70;2.60;;;;;;;;;;6021156;29;20640;-71
2023/12/14 12:47:10;;;;;;;3.00;2.80;;;;;;;;;;6022011;29;20490;-71
2023/12/14 12:50:14;;;;;;;3.10;2.60;;;;;;;;;;6021666;29;20593;-71
2023/12/14 12:53:19;;;;;;;2.80;2.60;;;;;;;;;;6021136;29;20294;-70
2023/12/14 12:56:24;;;;;;;2.57;2.47;;;;;;;;;;6022078;29;20300;-71
2023/12/14 12:59:28;;;;;;;2.87;2.67;;;;;;;;;;6026124;29;20308;-71
2023/12/14 13:02:32;;;;;;;2.03;1.97;;;;;;;;;;6021495;29;20307;-71
2023/12/14 13:05:36;;;;;;;2.33;2.23;;;;;;;;;;6021665;29;20585;-73
2023/12/14 13:08:40;;;;;;;2.07;2.07;;;;;;;;;;6020929;29;20309;-72
2023/12/14 13:11:46;;;;;;;2.53;2.43;;;;;;;;;;6005239;29;20302;-72
2023/12/14 13:14:50;;;;;;;2.90;2.80;;;;;;;;;;5998409;29;20300;-70
2023/12/14 13:17:54;;;;;;;2.53;2.43;;;;;;;;;;5998165;29;20300;-70
2023/12/14 13:20:58;;;;;;;2.30;2.30;;;;;;;;;;5998981;29;20593;-70
2023/12/14 13:24:02;;;;;;;2.50;2.40;;;;;;;;;;5998506;29;20301;-70
2023/12/14 13:27:08;;;;;;;2.37;2.27;;;;;;;;;;5998978;29;20308;-71
2023/12/14 13:30:16;;;;;;;3.07;2.87;;;;;;;;;;5998072;29;20305;-70
2023/12/14 13:33:21;;;;;;;2.60;2.50;;;;;;;;;;6013652;29;20301;-72
2023/12/14 13:36:26;;;;;;;2.67;2.50;;;;;;;;;;6021456;29;20296;-72
2023/12/14 13:39:30;;;;;;;2.47;2.47;;;;;;;;;;6020765;29;20457;-71
2023/12/14 13:42:36;;;;;;;2.93;2.43;;;;;;;;;;6020946;29;20309;-70
2023/12/14 13:45:57;;;;;;;2.27;2.17;;;;;;;;;;6020919;29;20313;-70
2023/12/14 13:49:20;;;;;;;3.57;2.60;;;;;;;;;;6020253;29;20312;-70
2023/12/14 13:52:23;;;;;;;2.33;2.23;;;;;;;;;;6020863;29;20299;-70
2023/12/14 13:55:29;;;;;;;2.47;2.37;;;;;;;;;;6020673;29;20313;-70
2023/12/14 13:58:38;;;;;;;2.37;2.20;;;;;;;;;;6020478;29;20300;-70
2023/12/14 14:01:42;;;;;;;2.43;2.43;;;;;;;;;;6021473;29;20297;-71
2023/12/14 14:04:46;;;;;;;2.13;2.00;;;;;;;;;;6020647;29;20292;-70
2023/12/14 14:07:52;;;;;;;2.40;2.30;;;;;;;;;;6019842;29;20317;-71
2023/12/14 14:10:56;;;;;;;2.60;2.50;;;;;;;;;;6009958;29;20308;-71
2023/12/14 14:14:01;;;;;;;2.83;2.73;;;;;;;;;;5997833;29;20306;-71
2023/12/14 14:17:07;;;;;;;2.80;2.60;;;;;;;;;;5998342;29;20301;-71
2023/12/14 14:20:11;;;;;;;2.43;2.20;;;;;;;;;;5997617;29;20302;-71
2023/12/14 14:23:15;;;;;;;2.40;2.40;;;;;;;;;;5997644;29;20306;-71
2023/12/14 14:26:19;;;;;;;2.80;2.70;;;;;;;;;;5998059;29;20310;-70
2023/12/14 14:29:24;;;;;;;2.60;2.50;;;;;;;;;;5999959;29;20330;-71
2023/12/14 14:32:31;;;;;;;2.20;2.10;;;;;;;;;;6010651;29;20308;-72
2023/12/14 14:35:37;;;;;;;2.20;2.13;;;;;;;;;;6024522;29;20305;-70
2023/12/14 14:38:40;;;;;;;2.20;2.20;;;;;;;;;;6023928;29;20296;-71
2023/12/14 14:41:44;;;;;;;2.20;2.20;;;;;;;;;;6024641;29;20300;-71
2023/12/14 14:44:49;;;;;;;2.20;2.10;;;;;;;;;;6023744;29;20311;-71
2023/12/14 14:47:54;;;;;;;1.80;1.80;;;;;;;;;;6023862;29;20301;-72
2023/12/14 14:50:58;;;;;;;1.93;1.83;;;;;;;;;;6024373;29;20304;-71
2023/12/14 14:54:02;;;;;;;1.97;1.97;;;;;;;;;;6023377;29;20322;-71
2023/12/14 14:57:07;;;;;;;2.03;2.03;;;;;;;;;;6024136;29;20492;-71
2023/12/14 15:00:15;;;;;;;1.90;1.80;;;;;;;;;;6023688;29;20305;-70
2023/12/14 15:03:21;;;;;;;2.40;2.30;;;;;;;;;;6023465;29;20299;-70
2023/12/14 15:06:25;;;;;;;1.90;1.90;;;;;;;;;;6024195;29;20491;-71
2023/12/14 15:09:29;;;;;;;2.33;2.17;;;;;;;;;;6023369;29;20316;-70
2023/12/14 15:12:33;;;;;;;1.90;1.90;;;;;;;;;;6024338;29;20586;-70
2023/12/14 15:15:39;;;;;;;2.20;2.10;;;;;;;;;;6023121;29;20296;-69
2023/12/14 15:18:43;;;;;;;2.17;2.07;;;;;;;;;;6024176;29;20292;-72
2023/12/14 15:21:47;;;;;;;2.30;2.20;;;;;;;;;;6023825;29;20596;-71
2023/12/14 15:24:50;;;;;;;2.33;2.23;;;;;;;;;;6023232;29;20307;-70
2023/12/14 15:27:54;;;;;;;2.07;2.07;;;;;;;;;;6023440;29;20308;-69
2023/12/14 15:31:00;;;;;;;2.50;2.40;;;;;;;;;;6023526;29;20596;-69
2023/12/14 15:34:06;;;;;;;2.23;2.23;;;;;;;;;;6022622;29;20623;-70
2023/12/14 15:37:10;;;;;;;2.30;2.10;;;;;;;;;;6023750;29;20300;-71
2023/12/14 15:40:14;;;;;;;2.37;2.30;;;;;;;;;;6022700;29;20308;-70
2023/12/14 15:43:18;;;;;;;2.90;2.80;;;;;;;;;;6022468;29;20309;-70
2023/12/14 15:46:23;;;;;;;2.30;2.30;;;;;;;;;;6023177;29;20300;-70
2023/12/14 15:49:27;;;;;;;2.80;2.70;;;;;;;;;;6022000;29;20300;-70
2023/12/14 15:52:31;;;;;;;2.80;2.70;;;;;;;;;;6022021;29;20303;-71
2023/12/14 15:55:35;;;;;;;2.73;2.63;;;;;;;;;;6022357;29;20303;-70
2023/12/14 15:58:39;;;;;;;2.80;2.70;;;;;;;;;;6022090;29;20306;-70
2023/12/14 16:01:45;;;;;;;3.27;3.07;;;;;;;;;;6022545;29;20305;-72
2023/12/14 16:04:52;;;;;;;2.70;2.60;;;;;;;;;;6021968;29;20462;-71
2023/12/14 16:07:56;;;;;;;3.03;2.93;;;;;;;;;;6021948;29;20302;-70
2023/12/14 16:11:00;;;;;;;3.20;3.00;;;;;;;;;;6010897;29;20333;-70
2023/12/14 16:14:04;;;;;;;2.83;2.73;;;;;;;;;;5999465;29;20304;-70
2023/12/14 16:17:09;;;;;;;3.10;2.90;;;;;;;;;;5999834;29;20480;-70
2023/12/14 16:20:13;;;;;;;3.00;2.90;;;;;;;;;;5998885;29;20309;-69
2023/12/14 16:23:17;;;;;;;3.27;3.17;;;;;;;;;;5999097;29;20300;-70
2023/12/14 16:26:21;;;;;;;3.40;3.13;;;;;;;;;;5999841;29;20303;-70
2023/12/14 16:29:25;;;;;;;3.20;3.03;;;;;;;;;;5999168;29;20296;-71
2023/12/14 16:32:30;;;;;;;2.53;2.43;;;;;;;;;;6008859;29;20451;-71
2023/12/14 16:35:35;;;;;;;2.97;2.77;;;;;;;;;;6021757;29;20321;-72
2023/12/14 16:38:39;;;;;;;3.13;3.03;;;;;;;;;;6021446;29;20290;-71
2023/12/14 16:41:43;;;;;;;3.30;3.10;;;;;;;;;;6022036;29;20299;-70
2023/12/14 16:44:47;;;;;;;2.90;2.80;;;;;;;;;;6019927;29;20296;-71
2023/12/14 16:47:52;;;;;;;2.90;2.70;;;;;;;;;;6021101;29;20299;-71
2023/12/14 16:50:56;;;;;;;3.07;2.97;;;;;;;;;;6020869;29;20308;-70
2023/12/14 16:54:00;;;;;;;4.20;3.20;;;;;;;;;;6020880;29;20306;-70
2023/12/14 16:57:07;;;;;;;3.17;2.97;;;;;;;;;;6021225;29;20321;-70
2023/12/14 17:00:12;;;;;;;4.47;2.93;;;;;;;;;;6020651;29;20304;-69
2023/12/14 17:03:17;;;;;;;6.53;3.53;;;;;;;;;;6020867;29;20307;-70
2023/12/14 17:06:22;;;;;;;4.77;4.37;;;;;;;;;;6021045;29;20475;-70
2023/12/14 17:09:29;;;;;;;4.57;4.00;;;;;;;;;;6020156;29;20315;-71
2023/12/14 17:12:33;;;;;;;4.37;3.97;;;;;;;;;;5998767;29;20331;-72
2023/12/14 17:15:37;;;;;;;4.20;3.80;;;;;;;;;;5998317;29;20297;-70
2023/12/14 17:18:43;;;;;;;5.57;4.27;;;;;;;;;;5998498;29;20305;-71
2023/12/14 17:21:47;;;;;;;5.90;3.77;;;;;;;;;;5998706;29;20296;-71
2023/12/14 17:24:51;;;;;;;3.90;3.60;;;;;;;;;;5997998;29;20355;-71
2023/12/14 17:27:55;;;;;;;4.20;4.00;;;;;;;;;;5998080;29;20375;-71
2023/12/14 17:30:59;;;;;;;4.13;3.83;;;;;;;;;;5998769;29;20329;-70
2023/12/14 17:34:04;;;;;;;4.23;3.73;;;;;;;;;;5998164;29;20308;-71
2023/12/14 17:37:08;;;;;;;3.70;3.50;;;;;;;;;;5998490;29;20308;-71
2023/12/14 17:40:13;;;;;;;12.10;5.83;;;;;;;;;;5998331;29;20302;-68
2023/12/14 17:43:17;;;;;;;4.53;4.13;;;;;;;;;;5998119;29;20293;-68
2023/12/14 17:46:21;;;;;;;3.60;3.40;;;;;;;;;;5998809;29;20490;-68
2023/12/14 17:49:27;;;;;;;3.43;3.13;;;;;;;;;;5997887;29;20300;-69
2023/12/14 17:52:31;;;;;;;2.97;2.87;;;;;;;;;;5996739;29;20300;-69
2023/12/14 17:55:35;;;;;;;3.93;3.53;;;;;;;;;;5996754;29;20313;-69
2023/12/14 17:58:42;;;;;;;3.50;3.30;;;;;;;;;;5997713;29;20305;-68
2023/12/14 18:01:46;;;;;;;5.53;4.03;;;;;;;;;;5998034;29;20622;-69
2023/12/14 18:04:52;;;;;;;3.50;3.40;;;;;;;;;;6000819;29;20317;-69
2023/12/14 18:07:55;;;;;;;3.63;3.37;;;;;;;;;;6001266;29;20301;-69
2023/12/14 18:10:59;;;;;;;3.53;3.23;;;;;;;;;;6019736;29;20307;-70
2023/12/14 18:14:03;;;;;;;3.80;3.50;;;;;;;;;;6024416;29;20397;-69
2023/12/14 18:17:07;;;;;;;3.43;3.23;;;;;;;;;;6024848;29;20300;-70
2023/12/14 18:20:13;;;;;;;3.30;3.20;;;;;;;;;;6024045;29;20312;-68
2023/12/14 18:23:17;;;;;;;3.13;2.93;;;;;;;;;;6023355;29;20305;-69
2023/12/14 18:26:21;;;;;;;3.13;3.00;;;;;;;;;;6024863;29;20608;-68